sensor_id;sensor_type;location;lat;lon;timestamp;P1;P2;P0
70691;PMS5003;58267;51.156;17.044;2023-02-04T00:00:51;2;2;
70691;PMS5003;58267;51.156;17.044;2023-02-04T00:03:16;3;2;
70691;PMS5003;58267;51.156;17.044;2023-02-04T00:05:42;2;2;
70691;PMS5003;58267;51.156;17.044;2023-02-04T00:08:07;2;2;
70691;PMS5003;58267;51.156;17.044;2023-02-04T00:10:32;2;2;
70691;PMS5003;58267;51.156;17.044;2023-02-04T00:12:57;0;0;
70691;PMS5003;58267;51.156;17.044;2023-02-04T00:15:22;2;2;
70691;PMS5003;58267;51.156;17.044;2023-02-04T00:17:48;3;3;
70691;PMS5003;58267;51.156;17.044;2023-02-04T00:20:13;3;2;
70691;PMS5003;58267;51.156;17.044;2023-02-04T00:22:38;2;2;
70691;PMS5003;58267;51.156;17.044;2023-02-04T00:25:03;2;2;
70691;PMS5003;58267;51.156;17.044;2023-02-04T00:27:29;2;2;
70691;PMS5003;58267;51.156;17.044;2023-02-04T00:29:54;1;1;
70691;PMS5003;58267;51.156;17.044;2023-02-04T00:32:19;3;3;
70691;PMS5003;58267;51.156;17.044;2023-02-04T00:34:45;3;3;
70691;PMS5003;58267;51.156;17.044;2023-02-04T00:37:10;3;3;
70691;PMS5003;58267;51.156;17.044;2023-02-04T00:39:35;3;3;
70691;PMS5003;58267;51.156;17.044;2023-02-04T00:42:00;4;3;
70691;PMS5003;58267;51.156;17.044;2023-02-04T00:44:25;1;1;
70691;PMS5003;58267;51.156;17.044;2023-02-04T00:46:51;2;2;
70691;PMS5003;58267;51.156;17.044;2023-02-04T00:49:16;1;1;
70691;PMS5003;58267;51.156;17.044;2023-02-04T00:51:41;3;3;
70691;PMS5003;58267;51.156;17.044;2023-02-04T00:54:06;3;3;
70691;PMS5003;58267;51.156;17.044;2023-02-04T00:56:32;4;4;
70691;PMS5003;58267;51.156;17.044;2023-02-04T00:58:58;2;2;
70691;PMS5003;58267;51.156;17.044;2023-02-04T01:01:23;2;2;
70691;PMS5003;58267;51.156;17.044;2023-02-04T01:03:49;4;4;
70691;PMS5003;58267;51.156;17.044;2023-02-04T01:06:14;4;3;
70691;PMS5003;58267;51.156;17.044;2023-02-04T01:08:39;3;3;
70691;PMS5003;58267;51.156;17.044;2023-02-04T01:11:05;3;3;
70691;PMS5003;58267;51.156;17.044;2023-02-04T01:13:30;6;4;
70691;PMS5003;58267;51.156;17.044;2023-02-04T01:15:55;4;4;
70691;PMS5003;58267;51.156;17.044;2023-02-04T01:18:20;5;4;
70691;PMS5003;58267;51.156;17.044;2023-02-04T01:20:46;4;4;
70691;PMS5003;58267;51.156;17.044;2023-02-04T01:23:11;4;4;
70691;PMS5003;58267;51.156;17.044;2023-02-04T01:25:36;5;5;
70691;PMS5003;58267;51.156;17.044;2023-02-04T01:28:01;6;5;
70691;PMS5003;58267;51.156;17.044;2023-02-04T01:30:26;5;5;
70691;PMS5003;58267;51.156;17.044;2023-02-04T01:32:52;5;5;
70691;PMS5003;58267;51.156;17.044;2023-02-04T01:35:17;9;9;
70691;PMS5003;58267;51.156;17.044;2023-02-04T01:37:42;25;25;
70691;PMS5003;58267;51.156;17.044;2023-02-04T01:40:08;28;28;
70691;PMS5003;58267;51.156;17.044;2023-02-04T01:42:33;22;21;
70691;PMS5003;58267;51.156;17.044;2023-02-04T01:44:58;36;34;
70691;PMS5003;58267;51.156;17.044;2023-02-04T01:47:24;38;36;
70691;PMS5003;58267;51.156;17.044;2023-02-04T01:49:50;36;35;
70691;PMS5003;58267;51.156;17.044;2023-02-04T01:52:15;41;40;
70691;PMS5003;58267;51.156;17.044;2023-02-04T01:54:40;38;35;
70691;PMS5003;58267;51.156;17.044;2023-02-04T01:57:08;35;34;
70691;PMS5003;58267;51.156;17.044;2023-02-04T01:59:31;45;40;
70691;PMS5003;58267;51.156;17.044;2023-02-04T02:01:57;46;44;
70691;PMS5003;58267;51.156;17.044;2023-02-04T02:04:25;42;37;
70691;PMS5003;58267;51.156;17.044;2023-02-04T02:06:49;42;40;
70691;PMS5003;58267;51.156;17.044;2023-02-04T02:09:14;39;37;
70691;PMS5003;58267;51.156;17.044;2023-02-04T02:11:40;36;35;
70691;PMS5003;58267;51.156;17.044;2023-02-04T02:14:05;39;38;
70691;PMS5003;58267;51.156;17.044;2023-02-04T02:16:30;37;35;
70691;PMS5003;58267;51.156;17.044;2023-02-04T02:18:56;35;32;
70691;PMS5003;58267;51.156;17.044;2023-02-04T02:21:25;39;38;
70691;PMS5003;58267;51.156;17.044;2023-02-04T02:23:47;35;30;
70691;PMS5003;58267;51.156;17.044;2023-02-04T02:26:12;37;35;
70691;PMS5003;58267;51.156;17.044;2023-02-04T02:28:37;31;29;
70691;PMS5003;58267;51.156;17.044;2023-02-04T02:31:02;32;32;
70691;PMS5003;58267;51.156;17.044;2023-02-04T02:33:28;35;31;
70691;PMS5003;58267;51.156;17.044;2023-02-04T02:35:53;29;27;
70691;PMS5003;58267;51.156;17.044;2023-02-04T02:38:19;24;23;
70691;PMS5003;58267;51.156;17.044;2023-02-04T02:40:44;28;28;
70691;PMS5003;58267;51.156;17.044;2023-02-04T02:43:10;29;28;
70691;PMS5003;58267;51.156;17.044;2023-02-04T02:45:35;30;29;
70691;PMS5003;58267;51.156;17.044;2023-02-04T02:48:00;28;27;
70691;PMS5003;58267;51.156;17.044;2023-02-04T02:50:26;27;26;
70691;PMS5003;58267;51.156;17.044;2023-02-04T02:52:51;24;24;
70691;PMS5003;58267;51.156;17.044;2023-02-04T02:55:17;23;22;
70691;PMS5003;58267;51.156;17.044;2023-02-04T02:57:43;21;20;
70691;PMS5003;58267;51.156;17.044;2023-02-04T03:00:12;22;21;
70691;PMS5003;58267;51.156;17.044;2023-02-04T03:02:33;16;16;
70691;PMS5003;58267;51.156;17.044;2023-02-04T03:04:58;18;17;
70691;PMS5003;58267;51.156;17.044;2023-02-04T03:07:23;18;17;
70691;PMS5003;58267;51.156;17.044;2023-02-04T03:09:48;14;14;
70691;PMS5003;58267;51.156;17.044;2023-02-04T03:12:14;16;16;
70691;PMS5003;58267;51.156;17.044;2023-02-04T03:14:40;18;18;
70691;PMS5003;58267;51.156;17.044;2023-02-04T03:17:06;19;19;
70691;PMS5003;58267;51.156;17.044;2023-02-04T03:19:31;20;19;
70691;PMS5003;58267;51.156;17.044;2023-02-04T03:21:57;16;16;
70691;PMS5003;58267;51.156;17.044;2023-02-04T03:24:22;12;11;
70691;PMS5003;58267;51.156;17.044;2023-02-04T03:26:47;10;10;
70691;PMS5003;58267;51.156;17.044;2023-02-04T03:29:13;11;11;
70691;PMS5003;58267;51.156;17.044;2023-02-04T03:31:38;8;8;
70691;PMS5003;58267;51.156;17.044;2023-02-04T03:34:03;8;8;
70691;PMS5003;58267;51.156;17.044;2023-02-04T03:36:29;13;12;
70691;PMS5003;58267;51.156;17.044;2023-02-04T03:38:54;10;10;
70691;PMS5003;58267;51.156;17.044;2023-02-04T03:41:20;10;10;
70691;PMS5003;58267;51.156;17.044;2023-02-04T03:43:45;9;9;
70691;PMS5003;58267;51.156;17.044;2023-02-04T03:46:10;12;12;
70691;PMS5003;58267;51.156;17.044;2023-02-04T03:48:35;13;13;
70691;PMS5003;58267;51.156;17.044;2023-02-04T03:51:01;14;13;
70691;PMS5003;58267;51.156;17.044;2023-02-04T03:53:26;14;14;
70691;PMS5003;58267;51.156;17.044;2023-02-04T03:55:51;17;15;
70691;PMS5003;58267;51.156;17.044;2023-02-04T03:58:16;17;17;
70691;PMS5003;58267;51.156;17.044;2023-02-04T04:00:41;13;13;
70691;PMS5003;58267;51.156;17.044;2023-02-04T04:03:07;19;18;
70691;PMS5003;58267;51.156;17.044;2023-02-04T04:05:34;7;7;
70691;PMS5003;58267;51.156;17.044;2023-02-04T04:07:59;14;13;
70691;PMS5003;58267;51.156;17.044;2023-02-04T04:10:25;14;13;
70691;PMS5003;58267;51.156;17.044;2023-02-04T04:12:50;15;14;
70691;PMS5003;58267;51.156;17.044;2023-02-04T04:15:15;14;13;
70691;PMS5003;58267;51.156;17.044;2023-02-04T04:17:40;16;14;
70691;PMS5003;58267;51.156;17.044;2023-02-04T04:20:06;12;12;
70691;PMS5003;58267;51.156;17.044;2023-02-04T04:22:31;11;11;
70691;PMS5003;58267;51.156;17.044;2023-02-04T04:24:56;12;12;
70691;PMS5003;58267;51.156;17.044;2023-02-04T04:27:22;14;13;
70691;PMS5003;58267;51.156;17.044;2023-02-04T04:29:47;16;15;
70691;PMS5003;58267;51.156;17.044;2023-02-04T04:32:13;14;14;
70691;PMS5003;58267;51.156;17.044;2023-02-04T04:34:38;21;19;
70691;PMS5003;58267;51.156;17.044;2023-02-04T04:37:03;14;14;
70691;PMS5003;58267;51.156;17.044;2023-02-04T04:39:29;17;17;
70691;PMS5003;58267;51.156;17.044;2023-02-04T04:41:54;9;9;
70691;PMS5003;58267;51.156;17.044;2023-02-04T04:44:19;18;17;
70691;PMS5003;58267;51.156;17.044;2023-02-04T04:46:45;17;16;
70691;PMS5003;58267;51.156;17.044;2023-02-04T04:49:10;14;14;
70691;PMS5003;58267;51.156;17.044;2023-02-04T04:51:37;16;16;
70691;PMS5003;58267;51.156;17.044;2023-02-04T04:54:02;20;19;
70691;PMS5003;58267;51.156;17.044;2023-02-04T04:56:28;18;18;
70691;PMS5003;58267;51.156;17.044;2023-02-04T04:58:53;21;18;
70691;PMS5003;58267;51.156;17.044;2023-02-04T05:01:18;20;18;
70691;PMS5003;58267;51.156;17.044;2023-02-04T05:03:44;23;20;
70691;PMS5003;58267;51.156;17.044;2023-02-04T05:06:10;21;19;
70691;PMS5003;58267;51.156;17.044;2023-02-04T05:08:35;17;14;
70691;PMS5003;58267;51.156;17.044;2023-02-04T05:11:00;17;17;
70691;PMS5003;58267;51.156;17.044;2023-02-04T05:13:26;21;21;
70691;PMS5003;58267;51.156;17.044;2023-02-04T05:15:51;23;21;
70691;PMS5003;58267;51.156;17.044;2023-02-04T05:18:16;20;19;
70691;PMS5003;58267;51.156;17.044;2023-02-04T05:20:41;22;21;
70691;PMS5003;58267;51.156;17.044;2023-02-04T05:23:06;25;23;
70691;PMS5003;58267;51.156;17.044;2023-02-04T05:25:32;24;21;
70691;PMS5003;58267;51.156;17.044;2023-02-04T05:27:58;22;22;
70691;PMS5003;58267;51.156;17.044;2023-02-04T05:30:23;19;19;
70691;PMS5003;58267;51.156;17.044;2023-02-04T05:32:49;22;22;
70691;PMS5003;58267;51.156;17.044;2023-02-04T05:35:15;24;23;
70691;PMS5003;58267;51.156;17.044;2023-02-04T05:37:41;22;22;
70691;PMS5003;58267;51.156;17.044;2023-02-04T05:40:06;20;20;
70691;PMS5003;58267;51.156;17.044;2023-02-04T05:42:32;18;16;
70691;PMS5003;58267;51.156;17.044;2023-02-04T05:44:57;22;22;
70691;PMS5003;58267;51.156;17.044;2023-02-04T05:47:22;23;21;
70691;PMS5003;58267;51.156;17.044;2023-02-04T05:49:48;22;20;
70691;PMS5003;58267;51.156;17.044;2023-02-04T05:52:13;20;20;
70691;PMS5003;58267;51.156;17.044;2023-02-04T05:54:40;26;25;
70691;PMS5003;58267;51.156;17.044;2023-02-04T05:57:05;23;23;
70691;PMS5003;58267;51.156;17.044;2023-02-04T05:59:30;22;22;
70691;PMS5003;58267;51.156;17.044;2023-02-04T06:01:56;21;20;
70691;PMS5003;58267;51.156;17.044;2023-02-04T06:04:21;24;23;
70691;PMS5003;58267;51.156;17.044;2023-02-04T06:06:47;27;26;
70691;PMS5003;58267;51.156;17.044;2023-02-04T06:09:13;24;24;
70691;PMS5003;58267;51.156;17.044;2023-02-04T06:11:38;24;23;
70691;PMS5003;58267;51.156;17.044;2023-02-04T06:14:03;23;23;
70691;PMS5003;58267;51.156;17.044;2023-02-04T06:16:29;23;22;
70691;PMS5003;58267;51.156;17.044;2023-02-04T06:18:54;27;24;
70691;PMS5003;58267;51.156;17.044;2023-02-04T06:21:19;26;25;
70691;PMS5003;58267;51.156;17.044;2023-02-04T06:23:45;23;23;
70691;PMS5003;58267;51.156;17.044;2023-02-04T06:26:11;19;19;
70691;PMS5003;58267;51.156;17.044;2023-02-04T06:28:36;21;21;
70691;PMS5003;58267;51.156;17.044;2023-02-04T06:31:01;23;22;
70691;PMS5003;58267;51.156;17.044;2023-02-04T06:33:27;22;20;
70691;PMS5003;58267;51.156;17.044;2023-02-04T06:35:53;23;20;
70691;PMS5003;58267;51.156;17.044;2023-02-04T06:38:19;18;18;
70691;PMS5003;58267;51.156;17.044;2023-02-04T06:40:44;20;20;
70691;PMS5003;58267;51.156;17.044;2023-02-04T06:43:10;21;21;
70691;PMS5003;58267;51.156;17.044;2023-02-04T06:45:36;16;16;
70691;PMS5003;58267;51.156;17.044;2023-02-04T06:48:01;16;15;
70691;PMS5003;58267;51.156;17.044;2023-02-04T06:50:26;16;16;
70691;PMS5003;58267;51.156;17.044;2023-02-04T06:52:52;18;18;
70691;PMS5003;58267;51.156;17.044;2023-02-04T06:55:17;19;17;
70691;PMS5003;58267;51.156;17.044;2023-02-04T06:57:43;19;18;
70691;PMS5003;58267;51.156;17.044;2023-02-04T07:00:09;19;18;
70691;PMS5003;58267;51.156;17.044;2023-02-04T07:02:33;17;17;
70691;PMS5003;58267;51.156;17.044;2023-02-04T07:04:58;16;16;
70691;PMS5003;58267;51.156;17.044;2023-02-04T07:07:23;21;19;
70691;PMS5003;58267;51.156;17.044;2023-02-04T07:09:52;7;7;
70691;PMS5003;58267;51.156;17.044;2023-02-04T07:12:17;15;15;
70691;PMS5003;58267;51.156;17.044;2023-02-04T07:14:42;15;15;
70691;PMS5003;58267;51.156;17.044;2023-02-04T07:17:08;14;12;
70691;PMS5003;58267;51.156;17.044;2023-02-04T07:19:33;15;14;
70691;PMS5003;58267;51.156;17.044;2023-02-04T07:21:58;16;13;
70691;PMS5003;58267;51.156;17.044;2023-02-04T07:24:24;17;15;
70691;PMS5003;58267;51.156;17.044;2023-02-04T07:26:49;14;13;
70691;PMS5003;58267;51.156;17.044;2023-02-04T07:29:14;13;13;
70691;PMS5003;58267;51.156;17.044;2023-02-04T07:31:39;15;15;
70691;PMS5003;58267;51.156;17.044;2023-02-04T07:34:05;15;13;
70691;PMS5003;58267;51.156;17.044;2023-02-04T07:36:31;15;15;
70691;PMS5003;58267;51.156;17.044;2023-02-04T07:38:56;14;13;
70691;PMS5003;58267;51.156;17.044;2023-02-04T07:41:22;12;12;
70691;PMS5003;58267;51.156;17.044;2023-02-04T07:43:47;12;12;
70691;PMS5003;58267;51.156;17.044;2023-02-04T07:46:13;15;14;
70691;PMS5003;58267;51.156;17.044;2023-02-04T07:48:38;14;14;
70691;PMS5003;58267;51.156;17.044;2023-02-04T07:51:04;12;10;
70691;PMS5003;58267;51.156;17.044;2023-02-04T07:53:29;12;12;
70691;PMS5003;58267;51.156;17.044;2023-02-04T07:55:54;13;13;
70691;PMS5003;58267;51.156;17.044;2023-02-04T07:58:20;11;9;
70691;PMS5003;58267;51.156;17.044;2023-02-04T08:00:45;13;12;
70691;PMS5003;58267;51.156;17.044;2023-02-04T08:03:10;13;13;
70691;PMS5003;58267;51.156;17.044;2023-02-04T08:05:36;14;13;
70691;PMS5003;58267;51.156;17.044;2023-02-04T08:08:02;13;12;
70691;PMS5003;58267;51.156;17.044;2023-02-04T08:10:27;11;11;
70691;PMS5003;58267;51.156;17.044;2023-02-04T08:12:53;11;11;
70691;PMS5003;58267;51.156;17.044;2023-02-04T08:15:19;11;11;
70691;PMS5003;58267;51.156;17.044;2023-02-04T08:17:44;12;11;
70691;PMS5003;58267;51.156;17.044;2023-02-04T08:20:10;11;11;
70691;PMS5003;58267;51.156;17.044;2023-02-04T08:22:35;13;13;
70691;PMS5003;58267;51.156;17.044;2023-02-04T08:25:00;12;10;
70691;PMS5003;58267;51.156;17.044;2023-02-04T08:27:25;10;9;
70691;PMS5003;58267;51.156;17.044;2023-02-04T08:29:50;12;11;
70691;PMS5003;58267;51.156;17.044;2023-02-04T08:32:16;12;12;
70691;PMS5003;58267;51.156;17.044;2023-02-04T08:34:41;14;13;
70691;PMS5003;58267;51.156;17.044;2023-02-04T08:37:06;10;10;
70691;PMS5003;58267;51.156;17.044;2023-02-04T08:39:31;10;9;
70691;PMS5003;58267;51.156;17.044;2023-02-04T08:41:56;9;9;
70691;PMS5003;58267;51.156;17.044;2023-02-04T08:44:22;11;10;
70691;PMS5003;58267;51.156;17.044;2023-02-04T08:46:47;11;10;
70691;PMS5003;58267;51.156;17.044;2023-02-04T08:49:13;10;8;
70691;PMS5003;58267;51.156;17.044;2023-02-04T08:51:38;6;5;
70691;PMS5003;58267;51.156;17.044;2023-02-04T08:54:04;9;8;
70691;PMS5003;58267;51.156;17.044;2023-02-04T08:56:30;8;8;
70691;PMS5003;58267;51.156;17.044;2023-02-04T08:58:55;10;9;
70691;PMS5003;58267;51.156;17.044;2023-02-04T09:01:20;8;8;
70691;PMS5003;58267;51.156;17.044;2023-02-04T09:03:45;12;12;
70691;PMS5003;58267;51.156;17.044;2023-02-04T09:06:11;11;11;
70691;PMS5003;58267;51.156;17.044;2023-02-04T09:08:36;11;10;
70691;PMS5003;58267;51.156;17.044;2023-02-04T09:11:01;10;10;
70691;PMS5003;58267;51.156;17.044;2023-02-04T09:13:27;10;10;
70691;PMS5003;58267;51.156;17.044;2023-02-04T09:15:52;11;11;
70691;PMS5003;58267;51.156;17.044;2023-02-04T09:18:17;9;9;
70691;PMS5003;58267;51.156;17.044;2023-02-04T09:20:43;9;8;
70691;PMS5003;58267;51.156;17.044;2023-02-04T09:23:08;10;8;
70691;PMS5003;58267;51.156;17.044;2023-02-04T09:25:33;11;10;
70691;PMS5003;58267;51.156;17.044;2023-02-04T09:27:59;9;9;
70691;PMS5003;58267;51.156;17.044;2023-02-04T09:30:25;12;10;
70691;PMS5003;58267;51.156;17.044;2023-02-04T09:32:50;11;11;
70691;PMS5003;58267;51.156;17.044;2023-02-04T09:35:15;13;12;
70691;PMS5003;58267;51.156;17.044;2023-02-04T09:37:41;15;14;
70691;PMS5003;58267;51.156;17.044;2023-02-04T09:40:06;12;9;
70691;PMS5003;58267;51.156;17.044;2023-02-04T09:42:31;12;12;
70691;PMS5003;58267;51.156;17.044;2023-02-04T09:44:57;12;10;
70691;PMS5003;58267;51.156;17.044;2023-02-04T09:47:23;12;12;
70691;PMS5003;58267;51.156;17.044;2023-02-04T09:49:48;11;10;
70691;PMS5003;58267;51.156;17.044;2023-02-04T09:52:14;12;12;
70691;PMS5003;58267;51.156;17.044;2023-02-04T09:54:39;14;13;
70691;PMS5003;58267;51.156;17.044;2023-02-04T09:57:07;13;13;
70691;PMS5003;58267;51.156;17.044;2023-02-04T09:59:29;13;12;
70691;PMS5003;58267;51.156;17.044;2023-02-04T10:01:56;14;14;
70691;PMS5003;58267;51.156;17.044;2023-02-04T10:04:20;13;13;
70691;PMS5003;58267;51.156;17.044;2023-02-04T10:06:46;12;12;
70691;PMS5003;58267;51.156;17.044;2023-02-04T10:09:11;13;12;
70691;PMS5003;58267;51.156;17.044;2023-02-04T10:11:37;14;14;
70691;PMS5003;58267;51.156;17.044;2023-02-04T10:14:02;12;11;
70691;PMS5003;58267;51.156;17.044;2023-02-04T10:16:27;13;13;
70691;PMS5003;58267;51.156;17.044;2023-02-04T10:18:52;15;14;
70691;PMS5003;58267;51.156;17.044;2023-02-04T10:21:19;16;16;
70691;PMS5003;58267;51.156;17.044;2023-02-04T10:23:44;15;14;
70691;PMS5003;58267;51.156;17.044;2023-02-04T10:26:09;11;11;
70691;PMS5003;58267;51.156;17.044;2023-02-04T10:28:34;16;15;
70691;PMS5003;58267;51.156;17.044;2023-02-04T10:31:00;17;17;
70691;PMS5003;58267;51.156;17.044;2023-02-04T10:33:25;16;14;
70691;PMS5003;58267;51.156;17.044;2023-02-04T10:35:51;17;15;
70691;PMS5003;58267;51.156;17.044;2023-02-04T10:38:16;16;15;
70691;PMS5003;58267;51.156;17.044;2023-02-04T10:40:41;17;16;
70691;PMS5003;58267;51.156;17.044;2023-02-04T10:43:07;13;13;
70691;PMS5003;58267;51.156;17.044;2023-02-04T10:45:32;18;18;
70691;PMS5003;58267;51.156;17.044;2023-02-04T10:47:58;15;15;
70691;PMS5003;58267;51.156;17.044;2023-02-04T10:50:24;18;15;
70691;PMS5003;58267;51.156;17.044;2023-02-04T10:52:50;12;11;
70691;PMS5003;58267;51.156;17.044;2023-02-04T10:55:15;10;10;
70691;PMS5003;58267;51.156;17.044;2023-02-04T10:57:40;14;13;
70691;PMS5003;58267;51.156;17.044;2023-02-04T11:00:06;19;17;
70691;PMS5003;58267;51.156;17.044;2023-02-04T11:02:31;19;17;
70691;PMS5003;58267;51.156;17.044;2023-02-04T11:04:55;18;17;
70691;PMS5003;58267;51.156;17.044;2023-02-04T11:07:21;18;17;
70691;PMS5003;58267;51.156;17.044;2023-02-04T11:09:46;14;14;
70691;PMS5003;58267;51.156;17.044;2023-02-04T11:14:37;12;11;
70691;PMS5003;58267;51.156;17.044;2023-02-04T11:17:02;7;7;
70691;PMS5003;58267;51.156;17.044;2023-02-04T11:19:31;8;8;
70691;PMS5003;58267;51.156;17.044;2023-02-04T11:22:02;8;8;
70691;PMS5003;58267;51.156;17.044;2023-02-04T11:24:21;10;8;
70691;PMS5003;58267;51.156;17.044;2023-02-04T11:26:45;10;9;
70691;PMS5003;58267;51.156;17.044;2023-02-04T11:31:41;10;10;
70691;PMS5003;58267;51.156;17.044;2023-02-04T11:34:06;10;8;
70691;PMS5003;58267;51.156;17.044;2023-02-04T11:36:26;6;5;
70691;PMS5003;58267;51.156;17.044;2023-02-04T11:38:51;8;7;
70691;PMS5003;58267;51.156;17.044;2023-02-04T11:41:20;9;8;
70691;PMS5003;58267;51.156;17.044;2023-02-04T11:43:42;9;8;
70691;PMS5003;58267;51.156;17.044;2023-02-04T11:46:09;9;9;
70691;PMS5003;58267;51.156;17.044;2023-02-04T11:48:34;13;12;
70691;PMS5003;58267;51.156;17.044;2023-02-04T11:50:59;9;9;
70691;PMS5003;58267;51.156;17.044;2023-02-04T11:53:27;20;15;
70691;PMS5003;58267;51.156;17.044;2023-02-04T11:55:50;10;10;
70691;PMS5003;58267;51.156;17.044;2023-02-04T11:58:16;10;9;
70691;PMS5003;58267;51.156;17.044;2023-02-04T12:00:40;8;7;
70691;PMS5003;58267;51.156;17.044;2023-02-04T12:03:16;9;8;
70691;PMS5003;58267;51.156;17.044;2023-02-04T12:05:35;6;5;
70691;PMS5003;58267;51.156;17.044;2023-02-04T12:07:56;8;8;
70691;PMS5003;58267;51.156;17.044;2023-02-04T12:12:47;8;8;
70691;PMS5003;58267;51.156;17.044;2023-02-04T12:15:14;6;6;
70691;PMS5003;58267;51.156;17.044;2023-02-04T12:17:38;6;5;
70691;PMS5003;58267;51.156;17.044;2023-02-04T12:20:03;6;6;
70691;PMS5003;58267;51.156;17.044;2023-02-04T12:22:28;5;5;
70691;PMS5003;58267;51.156;17.044;2023-02-04T12:24:53;9;9;
70691;PMS5003;58267;51.156;17.044;2023-02-04T12:27:19;12;10;
70691;PMS5003;58267;51.156;17.044;2023-02-04T12:29:44;7;7;
70691;PMS5003;58267;51.156;17.044;2023-02-04T12:32:09;11;10;
70691;PMS5003;58267;51.156;17.044;2023-02-04T12:34:35;56;49;
70691;PMS5003;58267;51.156;17.044;2023-02-04T12:37:00;10;10;
70691;PMS5003;58267;51.156;17.044;2023-02-04T12:39:25;9;9;
70691;PMS5003;58267;51.156;17.044;2023-02-04T12:41:51;12;10;
70691;PMS5003;58267;51.156;17.044;2023-02-04T12:44:17;13;13;
70691;PMS5003;58267;51.156;17.044;2023-02-04T12:46:42;10;8;
70691;PMS5003;58267;51.156;17.044;2023-02-04T12:49:08;10;9;
70691;PMS5003;58267;51.156;17.044;2023-02-04T12:51:33;18;16;
70691;PMS5003;58267;51.156;17.044;2023-02-04T12:53:59;7;7;
70691;PMS5003;58267;51.156;17.044;2023-02-04T12:56:24;8;8;
70691;PMS5003;58267;51.156;17.044;2023-02-04T12:58:49;10;8;
70691;PMS5003;58267;51.156;17.044;2023-02-04T13:01:15;10;9;
70691;PMS5003;58267;51.156;17.044;2023-02-04T13:03:40;6;6;
70691;PMS5003;58267;51.156;17.044;2023-02-04T13:06:05;8;6;
70691;PMS5003;58267;51.156;17.044;2023-02-04T13:08:31;6;6;
70691;PMS5003;58267;51.156;17.044;2023-02-04T13:10:56;9;8;
70691;PMS5003;58267;51.156;17.044;2023-02-04T13:13:21;7;4;
70691;PMS5003;58267;51.156;17.044;2023-02-04T13:15:46;8;5;
70691;PMS5003;58267;51.156;17.044;2023-02-04T13:18:12;8;8;
70691;PMS5003;58267;51.156;17.044;2023-02-04T13:20:37;5;5;
70691;PMS5003;58267;51.156;17.044;2023-02-04T13:23:02;4;4;
70691;PMS5003;58267;51.156;17.044;2023-02-04T13:25:28;6;5;
70691;PMS5003;58267;51.156;17.044;2023-02-04T13:27:53;5;5;
70691;PMS5003;58267;51.156;17.044;2023-02-04T13:30:18;6;5;
70691;PMS5003;58267;51.156;17.044;2023-02-04T13:32:43;10;9;
70691;PMS5003;58267;51.156;17.044;2023-02-04T13:35:09;6;6;
70691;PMS5003;58267;51.156;17.044;2023-02-04T13:37:34;5;5;
70691;PMS5003;58267;51.156;17.044;2023-02-04T13:40:00;6;6;
70691;PMS5003;58267;51.156;17.044;2023-02-04T13:42:25;6;6;
70691;PMS5003;58267;51.156;17.044;2023-02-04T13:44:50;5;4;
70691;PMS5003;58267;51.156;17.044;2023-02-04T13:47:16;4;3;
70691;PMS5003;58267;51.156;17.044;2023-02-04T13:49:41;8;7;
70691;PMS5003;58267;51.156;17.044;2023-02-04T13:52:07;9;7;
70691;PMS5003;58267;51.156;17.044;2023-02-04T13:54:32;10;8;
70691;PMS5003;58267;51.156;17.044;2023-02-04T13:56:57;6;6;
70691;PMS5003;58267;51.156;17.044;2023-02-04T13:59:23;5;5;
70691;PMS5003;58267;51.156;17.044;2023-02-04T14:01:53;6;6;
70691;PMS5003;58267;51.156;17.044;2023-02-04T14:04:13;8;6;
70691;PMS5003;58267;51.156;17.044;2023-02-04T14:06:39;9;8;
70691;PMS5003;58267;51.156;17.044;2023-02-04T14:09:04;9;8;
70691;PMS5003;58267;51.156;17.044;2023-02-04T14:11:29;9;9;
70691;PMS5003;58267;51.156;17.044;2023-02-04T14:13:54;11;9;
70691;PMS5003;58267;51.156;17.044;2023-02-04T14:16:20;12;11;
70691;PMS5003;58267;51.156;17.044;2023-02-04T14:18:45;15;14;
70691;PMS5003;58267;51.156;17.044;2023-02-04T14:21:10;15;15;
70691;PMS5003;58267;51.156;17.044;2023-02-04T14:23:35;17;14;
70691;PMS5003;58267;51.156;17.044;2023-02-04T14:26:01;14;14;
70691;PMS5003;58267;51.156;17.044;2023-02-04T14:28:26;19;17;
70691;PMS5003;58267;51.156;17.044;2023-02-04T14:30:51;14;13;
70691;PMS5003;58267;51.156;17.044;2023-02-04T14:33:18;12;11;
70691;PMS5003;58267;51.156;17.044;2023-02-04T14:35:43;15;14;
70691;PMS5003;58267;51.156;17.044;2023-02-04T14:38:09;12;12;
70691;PMS5003;58267;51.156;17.044;2023-02-04T14:40:34;14;14;
70691;PMS5003;58267;51.156;17.044;2023-02-04T14:42:59;12;11;
70691;PMS5003;58267;51.156;17.044;2023-02-04T14:45:25;13;12;
70691;PMS5003;58267;51.156;17.044;2023-02-04T14:47:50;14;13;
70691;PMS5003;58267;51.156;17.044;2023-02-04T14:50:16;11;10;
70691;PMS5003;58267;51.156;17.044;2023-02-04T14:52:42;9;9;
70691;PMS5003;58267;51.156;17.044;2023-02-04T14:55:08;9;8;
70691;PMS5003;58267;51.156;17.044;2023-02-04T14:57:33;8;8;
70691;PMS5003;58267;51.156;17.044;2023-02-04T14:59:58;9;9;
70691;PMS5003;58267;51.156;17.044;2023-02-04T15:02:24;8;7;
70691;PMS5003;58267;51.156;17.044;2023-02-04T15:04:49;10;10;
70691;PMS5003;58267;51.156;17.044;2023-02-04T15:07:14;10;9;
70691;PMS5003;58267;51.156;17.044;2023-02-04T15:09:41;14;13;
70691;PMS5003;58267;51.156;17.044;2023-02-04T15:12:06;11;11;
70691;PMS5003;58267;51.156;17.044;2023-02-04T15:14:31;9;9;
70691;PMS5003;58267;51.156;17.044;2023-02-04T15:16:56;12;11;
70691;PMS5003;58267;51.156;17.044;2023-02-04T15:19:22;10;8;
70691;PMS5003;58267;51.156;17.044;2023-02-04T15:21:47;11;10;
70691;PMS5003;58267;51.156;17.044;2023-02-04T15:24:12;14;12;
70691;PMS5003;58267;51.156;17.044;2023-02-04T15:26:38;16;14;
70691;PMS5003;58267;51.156;17.044;2023-02-04T15:29:03;18;17;
70691;PMS5003;58267;51.156;17.044;2023-02-04T15:31:28;8;8;
70691;PMS5003;58267;51.156;17.044;2023-02-04T15:33:54;7;7;
70691;PMS5003;58267;51.156;17.044;2023-02-04T15:36:19;10;10;
70691;PMS5003;58267;51.156;17.044;2023-02-04T15:38:44;7;5;
70691;PMS5003;58267;51.156;17.044;2023-02-04T15:41:10;7;5;
70691;PMS5003;58267;51.156;17.044;2023-02-04T15:43:35;7;7;
70691;PMS5003;58267;51.156;17.044;2023-02-04T15:46:00;8;8;
70691;PMS5003;58267;51.156;17.044;2023-02-04T15:48:25;6;5;
70691;PMS5003;58267;51.156;17.044;2023-02-04T15:50:51;5;5;
70691;PMS5003;58267;51.156;17.044;2023-02-04T15:53:16;7;7;
70691;PMS5003;58267;51.156;17.044;2023-02-04T15:55:41;4;4;
70691;PMS5003;58267;51.156;17.044;2023-02-04T15:58:07;10;9;
70691;PMS5003;58267;51.156;17.044;2023-02-04T16:00:33;6;6;
70691;PMS5003;58267;51.156;17.044;2023-02-04T16:02:58;6;6;
70691;PMS5003;58267;51.156;17.044;2023-02-04T16:05:23;6;5;